sensor_id;sensor_type;location;lat;lon;timestamp;temperature;humidity
21944;DHT22;11136;48.778;9.126;2022-10-01T00:00:24;10.70;99.90
21944;DHT22;11136;48.778;9.126;2022-10-01T00:02:52;10.70;99.90
21944;DHT22;11136;48.778;9.126;2022-10-01T00:05:18;10.70;99.90
21944;DHT22;11136;48.778;9.126;2022-10-01T00:07:44;10.70;99.90
21944;DHT22;11136;48.778;9.126;2022-10-01T00:10:11;10.70;99.90
21944;DHT22;11136;48.778;9.126;2022-10-01T00:12:38;10.70;99.90
21944;DHT22;11136;48.778;9.126;2022-10-01T00:15:08;10.70;99.90
21944;DHT22;11136;48.778;9.126;2022-10-01T00:17:35;10.70;99.90
21944;DHT22;11136;48.778;9.126;2022-10-01T00:20:02;10.70;99.90
21944;DHT22;11136;48.778;9.126;2022-10-01T00:22:32;10.60;99.90
21944;DHT22;11136;48.778;9.126;2022-10-01T00:24:59;10.60;99.90
21944;DHT22;11136;48.778;9.126;2022-10-01T00:27:25;10.60;99.90
21944;DHT22;11136;48.778;9.126;2022-10-01T00:29:51;10.60;99.90
21944;DHT22;11136;48.778;9.126;2022-10-01T00:32:17;10.60;99.90
21944;DHT22;11136;48.778;9.126;2022-10-01T00:34:42;10.60;99.90
21944;DHT22;11136;48.778;9.126;2022-10-01T00:37:08;10.60;99.90
21944;DHT22;11136;48.778;9.126;2022-10-01T00:39:35;10.90;99.90
21944;DHT22;11136;48.778;9.126;2022-10-01T00:42:02;10.60;99.90
21944;DHT22;11136;48.778;9.126;2022-10-01T00:44:29;10.60;99.90
21944;DHT22;11136;48.778;9.126;2022-10-01T00:47:01;10.60;99.90
21944;DHT22;11136;48.778;9.126;2022-10-01T00:49:28;10.50;99.90
21944;DHT22;11136;48.778;9.126;2022-10-01T00:51:57;10.50;99.90
21944;DHT22;11136;48.778;9.126;2022-10-01T00:54:28;10.50;99.90
21944;DHT22;11136;48.778;9.126;2022-10-01T00:56:57;10.50;99.90
21944;DHT22;11136;48.778;9.126;2022-10-01T00:59:24;10.60;99.90
21944;DHT22;11136;48.778;9.126;2022-10-01T01:01:50;10.50;99.90
21944;DHT22;11136;48.778;9.126;2022-10-01T01:04:15;10.60;99.90
21944;DHT22;11136;48.778;9.126;2022-10-01T01:06:47;10.80;99.90
21944;DHT22;11136;48.778;9.126;2022-10-01T01:09:16;10.50;99.90
21944;DHT22;11136;48.778;9.126;2022-10-01T01:11:57;10.60;99.90
21944;DHT22;11136;48.778;9.126;2022-10-01T01:14:50;10.50;99.90
21944;DHT22;11136;48.778;9.126;2022-10-01T01:17:27;10.50;99.90
21944;DHT22;11136;48.778;9.126;2022-10-01T01:23:08;10.50;99.90
21944;DHT22;11136;48.778;9.126;2022-10-01T01:25:46;10.40;99.90
21944;DHT22;11136;48.778;9.126;2022-10-01T01:28:23;10.40;99.90
21944;DHT22;11136;48.778;9.126;2022-10-01T01:30:54;10.40;99.90
21944;DHT22;11136;48.778;9.126;2022-10-01T01:33:23;10.30;99.90
21944;DHT22;11136;48.778;9.126;2022-10-01T01:35:57;10.30;99.90
21944;DHT22;11136;48.778;9.126;2022-10-01T01:38:27;10.40;99.90
21944;DHT22;11136;48.778;9.126;2022-10-01T01:40:56;10.40;99.90
21944;DHT22;11136;48.778;9.126;2022-10-01T01:43:26;10.40;99.90
21944;DHT22;11136;48.778;9.126;2022-10-01T01:45:53;10.40;99.90
21944;DHT22;11136;48.778;9.126;2022-10-01T01:48:21;10.40;99.90
21944;DHT22;11136;48.778;9.126;2022-10-01T01:53:23;10.50;99.90
21944;DHT22;11136;48.778;9.126;2022-10-01T01:55:50;10.50;99.90
21944;DHT22;11136;48.778;9.126;2022-10-01T01:58:17;10.50;99.90
21944;DHT22;11136;48.778;9.126;2022-10-01T02:00:43;10.50;99.90
21944;DHT22;11136;48.778;9.126;2022-10-01T02:03:10;10.60;99.90
21944;DHT22;11136;48.778;9.126;2022-10-01T02:05:54;10.60;99.90
21944;DHT22;11136;48.778;9.126;2022-10-01T02:11:26;10.60;99.90
21944;DHT22;11136;48.778;9.126;2022-10-01T02:14:11;10.60;99.90
21944;DHT22;11136;48.778;9.126;2022-10-01T02:16:47;10.60;99.90
21944;DHT22;11136;48.778;9.126;2022-10-01T02:19:24;10.60;99.90
21944;DHT22;11136;48.778;9.126;2022-10-01T02:21:55;10.60;99.90
21944;DHT22;11136;48.778;9.126;2022-10-01T02:24:38;10.60;99.90
21944;DHT22;11136;48.778;9.126;2022-10-01T02:27:16;10.60;99.90
21944;DHT22;11136;48.778;9.126;2022-10-01T02:29:44;10.60;99.90
21944;DHT22;11136;48.778;9.126;2022-10-01T02:32:12;10.60;99.90
21944;DHT22;11136;48.778;9.126;2022-10-01T02:34:38;10.60;99.90
21944;DHT22;11136;48.778;9.126;2022-10-01T02:37:05;10.60;99.90
21944;DHT22;11136;48.778;9.126;2022-10-01T02:39:33;10.80;99.90
21944;DHT22;11136;48.778;9.126;2022-10-01T02:42:00;10.80;99.90
21944;DHT22;11136;48.778;9.126;2022-10-01T02:44:30;10.60;99.90
21944;DHT22;11136;48.778;9.126;2022-10-01T02:49:39;10.60;99.90
21944;DHT22;11136;48.778;9.126;2022-10-01T02:52:50;10.60;99.90
21944;DHT22;11136;48.778;9.126;2022-10-01T02:55:28;10.70;99.90
21944;DHT22;11136;48.778;9.126;2022-10-01T02:57:55;10.70;99.90
21944;DHT22;11136;48.778;9.126;2022-10-01T03:00:21;10.70;99.90
21944;DHT22;11136;48.778;9.126;2022-10-01T03:02:47;10.70;99.90
21944;DHT22;11136;48.778;9.126;2022-10-01T03:05:14;10.70;99.90
21944;DHT22;11136;48.778;9.126;2022-10-01T03:07:40;10.70;99.90
21944;DHT22;11136;48.778;9.126;2022-10-01T03:10:07;10.70;99.90
21944;DHT22;11136;48.778;9.126;2022-10-01T03:12:33;10.80;99.90
21944;DHT22;11136;48.778;9.126;2022-10-01T03:14:59;10.70;99.90
21944;DHT22;11136;48.778;9.126;2022-10-01T03:17:25;10.80;99.90
21944;DHT22;11136;48.778;9.126;2022-10-01T03:19:51;10.70;99.90
21944;DHT22;11136;48.778;9.126;2022-10-01T03:22:18;10.70;99.90
21944;DHT22;11136;48.778;9.126;2022-10-01T03:24:47;10.80;99.90
21944;DHT22;11136;48.778;9.126;2022-10-01T03:27:12;10.80;99.90
21944;DHT22;11136;48.778;9.126;2022-10-01T03:29:38;10.70;99.90
21944;DHT22;11136;48.778;9.126;2022-10-01T03:32:03;10.70;99.90
21944;DHT22;11136;48.778;9.126;2022-10-01T03:34:29;10.70;99.90
21944;DHT22;11136;48.778;9.126;2022-10-01T03:36:55;10.70;99.90
21944;DHT22;11136;48.778;9.126;2022-10-01T03:39:20;10.70;99.90
21944;DHT22;11136;48.778;9.126;2022-10-01T03:41:46;10.70;99.90
21944;DHT22;11136;48.778;9.126;2022-10-01T03:44:11;10.70;99.90
21944;DHT22;11136;48.778;9.126;2022-10-01T03:46:37;10.70;99.90
21944;DHT22;11136;48.778;9.126;2022-10-01T03:49:02;10.70;99.90
21944;DHT22;11136;48.778;9.126;2022-10-01T03:51:29;10.60;99.90
21944;DHT22;11136;48.778;9.126;2022-10-01T03:53:55;10.70;99.90
21944;DHT22;11136;48.778;9.126;2022-10-01T03:56:21;10.70;99.90
21944;DHT22;11136;48.778;9.126;2022-10-01T03:58:47;10.70;99.90
21944;DHT22;11136;48.778;9.126;2022-10-01T04:01:12;10.70;99.90
21944;DHT22;11136;48.778;9.126;2022-10-01T04:03:38;10.70;99.90
21944;DHT22;11136;48.778;9.126;2022-10-01T04:06:03;10.70;99.90
21944;DHT22;11136;48.778;9.126;2022-10-01T04:08:29;10.70;99.90
21944;DHT22;11136;48.778;9.126;2022-10-01T04:10:54;10.70;99.90
21944;DHT22;11136;48.778;9.126;2022-10-01T04:13:20;10.70;99.90
21944;DHT22;11136;48.778;9.126;2022-10-01T04:15:45;10.70;99.90
21944;DHT22;11136;48.778;9.126;2022-10-01T04:18:12;10.70;99.90
21944;DHT22;11136;48.778;9.126;2022-10-01T04:20:38;10.70;99.90
21944;DHT22;11136;48.778;9.126;2022-10-01T04:23:04;10.70;99.90
21944;DHT22;11136;48.778;9.126;2022-10-01T04:25:30;10.70;99.90
21944;DHT22;11136;48.778;9.126;2022-10-01T04:28:04;10.70;99.90
21944;DHT22;11136;48.778;9.126;2022-10-01T04:30:32;10.80;99.90
21944;DHT22;11136;48.778;9.126;2022-10-01T04:32:58;10.80;99.90
21944;DHT22;11136;48.778;9.126;2022-10-01T04:35:25;10.80;99.90
21944;DHT22;11136;48.778;9.126;2022-10-01T04:38:02;10.80;99.90
21944;DHT22;11136;48.778;9.126;2022-10-01T04:40:33;10.80;99.90
21944;DHT22;11136;48.778;9.126;2022-10-01T04:43:03;10.80;99.90
21944;DHT22;11136;48.778;9.126;2022-10-01T04:45:29;10.80;99.90
21944;DHT22;11136;48.778;9.126;2022-10-01T04:47:55;10.80;99.90
21944;DHT22;11136;48.778;9.126;2022-10-01T04:50:23;10.90;99.90
21944;DHT22;11136;48.778;9.126;2022-10-01T04:52:50;10.90;99.90
21944;DHT22;11136;48.778;9.126;2022-10-01T04:55:17;10.90;99.90
21944;DHT22;11136;48.778;9.126;2022-10-01T04:57:43;10.90;99.90
21944;DHT22;11136;48.778;9.126;2022-10-01T05:00:11;10.90;99.90
21944;DHT22;11136;48.778;9.126;2022-10-01T05:02:37;10.90;99.90
21944;DHT22;11136;48.778;9.126;2022-10-01T05:05:04;10.90;99.90
21944;DHT22;11136;48.778;9.126;2022-10-01T05:07:31;10.90;99.90
21944;DHT22;11136;48.778;9.126;2022-10-01T05:09:57;10.90;99.90
21944;DHT22;11136;48.778;9.126;2022-10-01T05:12:24;10.90;99.90
21944;DHT22;11136;48.778;9.126;2022-10-01T05:14:54;10.90;99.90
21944;DHT22;11136;48.778;9.126;2022-10-01T05:17:20;10.90;99.90
21944;DHT22;11136;48.778;9.126;2022-10-01T05:19:46;10.90;99.90
21944;DHT22;11136;48.778;9.126;2022-10-01T05:22:12;10.90;99.90
21944;DHT22;11136;48.778;9.126;2022-10-01T05:24:38;10.90;99.90
21944;DHT22;11136;48.778;9.126;2022-10-01T05:27:05;11.00;99.90
21944;DHT22;11136;48.778;9.126;2022-10-01T05:29:30;11.00;99.90
21944;DHT22;11136;48.778;9.126;2022-10-01T05:31:57;11.00;99.90
21944;DHT22;11136;48.778;9.126;2022-10-01T05:34:23;11.00;99.90
21944;DHT22;11136;48.778;9.126;2022-10-01T05:36:48;11.00;99.90
21944;DHT22;11136;48.778;9.126;2022-10-01T05:39:14;11.00;99.90
21944;DHT22;11136;48.778;9.126;2022-10-01T05:41:39;11.00;99.90
21944;DHT22;11136;48.778;9.126;2022-10-01T05:44:06;11.00;99.90
21944;DHT22;11136;48.778;9.126;2022-10-01T05:46:32;11.00;99.90
21944;DHT22;11136;48.778;9.126;2022-10-01T05:48:57;11.00;99.90
21944;DHT22;11136;48.778;9.126;2022-10-01T05:51:23;11.10;99.90
21944;DHT22;11136;48.778;9.126;2022-10-01T05:53:49;11.10;99.90
21944;DHT22;11136;48.778;9.126;2022-10-01T05:56:15;11.10;99.90
21944;DHT22;11136;48.778;9.126;2022-10-01T05:58:40;11.10;99.90
21944;DHT22;11136;48.778;9.126;2022-10-01T06:01:06;11.10;99.90
21944;DHT22;11136;48.778;9.126;2022-10-01T06:03:31;11.10;99.90
21944;DHT22;11136;48.778;9.126;2022-10-01T06:05:57;11.10;99.90
21944;DHT22;11136;48.778;9.126;2022-10-01T06:08:23;11.10;99.90
21944;DHT22;11136;48.778;9.126;2022-10-01T06:10:48;11.10;99.90
21944;DHT22;11136;48.778;9.126;2022-10-01T06:13:14;11.20;99.90
21944;DHT22;11136;48.778;9.126;2022-10-01T06:15:43;11.10;99.90
21944;DHT22;11136;48.778;9.126;2022-10-01T06:18:11;11.10;99.90
21944;DHT22;11136;48.778;9.126;2022-10-01T06:20:38;11.10;99.90
21944;DHT22;11136;48.778;9.126;2022-10-01T06:23:04;11.10;99.90
21944;DHT22;11136;48.778;9.126;2022-10-01T06:25:32;11.00;99.90
21944;DHT22;11136;48.778;9.126;2022-10-01T06:27:59;11.00;99.90
21944;DHT22;11136;48.778;9.126;2022-10-01T06:30:27;11.00;99.90
21944;DHT22;11136;48.778;9.126;2022-10-01T06:32:58;11.00;99.90
21944;DHT22;11136;48.778;9.126;2022-10-01T06:35:24;11.00;99.90
21944;DHT22;11136;48.778;9.126;2022-10-01T06:37:50;11.00;99.90
21944;DHT22;11136;48.778;9.126;2022-10-01T06:40:15;11.00;99.90
21944;DHT22;11136;48.778;9.126;2022-10-01T06:42:49;11.00;99.90
21944;DHT22;11136;48.778;9.126;2022-10-01T06:45:16;11.00;99.90
21944;DHT22;11136;48.778;9.126;2022-10-01T06:47:42;11.00;99.90
21944;DHT22;11136;48.778;9.126;2022-10-01T06:50:08;11.10;99.90
21944;DHT22;11136;48.778;9.126;2022-10-01T06:52:35;11.10;99.90
21944;DHT22;11136;48.778;9.126;2022-10-01T06:55:21;11.10;99.90
21944;DHT22;11136;48.778;9.126;2022-10-01T06:57:47;11.10;99.90
21944;DHT22;11136;48.778;9.126;2022-10-01T07:00:14;11.10;99.90
21944;DHT22;11136;48.778;9.126;2022-10-01T07:02:40;11.20;99.90
21944;DHT22;11136;48.778;9.126;2022-10-01T07:05:06;11.40;99.90
21944;DHT22;11136;48.778;9.126;2022-10-01T07:07:35;11.20;99.90
21944;DHT22;11136;48.778;9.126;2022-10-01T07:10:06;11.20;99.90
21944;DHT22;11136;48.778;9.126;2022-10-01T07:12:32;11.30;99.90
21944;DHT22;11136;48.778;9.126;2022-10-01T07:14:58;11.30;99.90
21944;DHT22;11136;48.778;9.126;2022-10-01T07:17:24;11.20;99.90
21944;DHT22;11136;48.778;9.126;2022-10-01T07:19:49;11.30;99.90
21944;DHT22;11136;48.778;9.126;2022-10-01T07:22:15;11.20;99.90
21944;DHT22;11136;48.778;9.126;2022-10-01T07:24:42;11.20;99.90
21944;DHT22;11136;48.778;9.126;2022-10-01T07:27:07;11.20;99.90
21944;DHT22;11136;48.778;9.126;2022-10-01T07:29:33;11.20;99.90
21944;DHT22;11136;48.778;9.126;2022-10-01T07:31:59;11.20;99.90
21944;DHT22;11136;48.778;9.126;2022-10-01T07:34:26;11.20;99.90
21944;DHT22;11136;48.778;9.126;2022-10-01T07:36:52;11.20;99.90
21944;DHT22;11136;48.778;9.126;2022-10-01T07:39:19;11.20;99.90
21944;DHT22;11136;48.778;9.126;2022-10-01T07:41:44;11.20;99.90
21944;DHT22;11136;48.778;9.126;2022-10-01T07:44:10;11.20;99.90
21944;DHT22;11136;48.778;9.126;2022-10-01T07:46:37;11.20;99.90
21944;DHT22;11136;48.778;9.126;2022-10-01T07:49:03;11.10;99.90
21944;DHT22;11136;48.778;9.126;2022-10-01T07:51:29;11.10;99.90
21944;DHT22;11136;48.778;9.126;2022-10-01T07:53:54;11.10;99.90
21944;DHT22;11136;48.778;9.126;2022-10-01T07:56:20;11.10;99.90
21944;DHT22;11136;48.778;9.126;2022-10-01T07:58:46;11.40;99.90
21944;DHT22;11136;48.778;9.126;2022-10-01T08:01:12;11.10;99.90
21944;DHT22;11136;48.778;9.126;2022-10-01T08:03:37;11.00;99.90
21944;DHT22;11136;48.778;9.126;2022-10-01T08:06:03;11.00;99.90
21944;DHT22;11136;48.778;9.126;2022-10-01T08:08:31;10.90;99.90
21944;DHT22;11136;48.778;9.126;2022-10-01T08:11:00;10.90;99.90
21944;DHT22;11136;48.778;9.126;2022-10-01T08:13:26;10.90;99.90
21944;DHT22;11136;48.778;9.126;2022-10-01T08:15:52;10.90;99.90
21944;DHT22;11136;48.778;9.126;2022-10-01T08:18:22;10.80;99.90
21944;DHT22;11136;48.778;9.126;2022-10-01T08:20:48;10.80;99.90
21944;DHT22;11136;48.778;9.126;2022-10-01T08:23:15;10.80;99.90
21944;DHT22;11136;48.778;9.126;2022-10-01T08:25:42;10.80;99.90
21944;DHT22;11136;48.778;9.126;2022-10-01T08:28:09;10.80;99.90
21944;DHT22;11136;48.778;9.126;2022-10-01T08:30:37;10.80;99.90
21944;DHT22;11136;48.778;9.126;2022-10-01T08:33:04;10.80;99.90
21944;DHT22;11136;48.778;9.126;2022-10-01T08:35:30;10.90;99.90
21944;DHT22;11136;48.778;9.126;2022-10-01T08:38:02;10.90;99.90
21944;DHT22;11136;48.778;9.126;2022-10-01T08:40:28;10.90;99.90
21944;DHT22;11136;48.778;9.126;2022-10-01T08:43:17;10.90;99.90
21944;DHT22;11136;48.778;9.126;2022-10-01T08:45:50;10.90;99.90
21944;DHT22;11136;48.778;9.126;2022-10-01T08:48:21;10.90;99.90
21944;DHT22;11136;48.778;9.126;2022-10-01T08:50:55;11.00;99.90
21944;DHT22;11136;48.778;9.126;2022-10-01T08:55:54;11.00;99.90
21944;DHT22;11136;48.778;9.126;2022-10-01T08:58:27;10.90;99.90
21944;DHT22;11136;48.778;9.126;2022-10-01T09:00:54;11.00;99.90
21944;DHT22;11136;48.778;9.126;2022-10-01T09:03:19;11.00;99.90
21944;DHT22;11136;48.778;9.126;2022-10-01T09:22:43;11.20;99.90
21944;DHT22;11136;48.778;9.126;2022-10-01T09:25:27;11.20;99.90
21944;DHT22;11136;48.778;9.126;2022-10-01T09:28:14;11.20;99.90
21944;DHT22;11136;48.778;9.126;2022-10-01T09:34:02;11.20;99.90
21944;DHT22;11136;48.778;9.126;2022-10-01T09:36:30;11.20;99.90
21944;DHT22;11136;48.778;9.126;2022-10-01T09:39:16;11.20;99.90
21944;DHT22;11136;48.778;9.126;2022-10-01T09:41:44;11.20;99.90
21944;DHT22;11136;48.778;9.126;2022-10-01T09:44:30;11.20;99.90
21944;DHT22;11136;48.778;9.126;2022-10-01T09:46:59;11.10;99.90
21944;DHT22;11136;48.778;9.126;2022-10-01T09:50:03;11.10;99.90
21944;DHT22;11136;48.778;9.126;2022-10-01T09:52:51;11.20;99.90
21944;DHT22;11136;48.778;9.126;2022-10-01T09:59:12;11.20;99.90
21944;DHT22;11136;48.778;9.126;2022-10-01T10:01:57;11.20;99.90
21944;DHT22;11136;48.778;9.126;2022-10-01T10:04:41;11.20;99.90
21944;DHT22;11136;48.778;9.126;2022-10-01T10:07:16;11.20;99.90
21944;DHT22;11136;48.778;9.126;2022-10-01T10:09:44;11.50;99.90
21944;DHT22;11136;48.778;9.126;2022-10-01T10:12:30;11.30;99.90
21944;DHT22;11136;48.778;9.126;2022-10-01T10:15:06;11.20;99.90
21944;DHT22;11136;48.778;9.126;2022-10-01T10:17:33;11.30;99.90
21944;DHT22;11136;48.778;9.126;2022-10-01T10:20:09;11.30;99.90
21944;DHT22;11136;48.778;9.126;2022-10-01T10:23:05;11.30;99.90
21944;DHT22;11136;48.778;9.126;2022-10-01T10:25:52;11.30;99.90
21944;DHT22;11136;48.778;9.126;2022-10-01T10:28:19;11.30;99.90
21944;DHT22;11136;48.778;9.126;2022-10-01T10:30:49;11.40;99.90
21944;DHT22;11136;48.778;9.126;2022-10-01T10:33:16;11.40;99.90
21944;DHT22;11136;48.778;9.126;2022-10-01T10:35:45;11.40;99.90
21944;DHT22;11136;48.778;9.126;2022-10-01T10:38:17;11.40;99.90
21944;DHT22;11136;48.778;9.126;2022-10-01T10:40:44;11.40;99.90
21944;DHT22;11136;48.778;9.126;2022-10-01T10:43:36;11.70;99.90
21944;DHT22;11136;48.778;9.126;2022-10-01T10:46:23;11.50;99.90
21944;DHT22;11136;48.778;9.126;2022-10-01T10:48:58;11.50;99.90
21944;DHT22;11136;48.778;9.126;2022-10-01T10:51:24;11.60;99.90
21944;DHT22;11136;48.778;9.126;2022-10-01T10:53:52;11.60;99.90
21944;DHT22;11136;48.778;9.126;2022-10-01T10:56:20;11.60;99.90
21944;DHT22;11136;48.778;9.126;2022-10-01T10:58:47;11.70;99.90
21944;DHT22;11136;48.778;9.126;2022-10-01T11:01:15;11.70;99.90
21944;DHT22;11136;48.778;9.126;2022-10-01T11:03:47;12.00;99.90
21944;DHT22;11136;48.778;9.126;2022-10-01T11:06:15;11.90;99.90
21944;DHT22;11136;48.778;9.126;2022-10-01T11:08:44;11.90;99.90
21944;DHT22;11136;48.778;9.126;2022-10-01T11:11:20;12.00;99.90
21944;DHT22;11136;48.778;9.126;2022-10-01T11:17:33;12.10;99.90
21944;DHT22;11136;48.778;9.126;2022-10-01T11:19:53;12.20;99.90
21944;DHT22;11136;48.778;9.126;2022-10-01T11:25:12;12.10;99.90
21944;DHT22;11136;48.778;9.126;2022-10-01T11:27:51;12.10;99.90
21944;DHT22;11136;48.778;9.126;2022-10-01T11:30:23;12.20;99.90
21944;DHT22;11136;48.778;9.126;2022-10-01T11:35:49;12.20;99.90
21944;DHT22;11136;48.778;9.126;2022-10-01T11:41:23;12.30;99.90
21944;DHT22;11136;48.778;9.126;2022-10-01T11:44:02;12.30;99.90
21944;DHT22;11136;48.778;9.126;2022-10-01T11:46:45;12.30;99.90
21944;DHT22;11136;48.778;9.126;2022-10-01T11:49:21;12.30;99.90
21944;DHT22;11136;48.778;9.126;2022-10-01T11:51:54;12.30;99.90
21944;DHT22;11136;48.778;9.126;2022-10-01T11:54:25;12.30;99.90
21944;DHT22;11136;48.778;9.126;2022-10-01T11:56:54;12.30;99.90
21944;DHT22;11136;48.778;9.126;2022-10-01T11:59:56;12.30;99.90
21944;DHT22;11136;48.778;9.126;2022-10-01T12:02:31;12.30;99.90
21944;DHT22;11136;48.778;9.126;2022-10-01T12:05:17;12.30;99.90
21944;DHT22;11136;48.778;9.126;2022-10-01T12:07:58;12.40;99.90
21944;DHT22;11136;48.778;9.126;2022-10-01T12:10:55;12.40;99.90
21944;DHT22;11136;48.778;9.126;2022-10-01T12:13:30;12.50;99.90
21944;DHT22;11136;48.778;9.126;2022-10-01T12:19:31;12.50;99.90
21944;DHT22;11136;48.778;9.126;2022-10-01T12:22:23;12.50;99.90
21944;DHT22;11136;48.778;9.126;2022-10-01T12:24:51;12.60;99.90
21944;DHT22;11136;48.778;9.126;2022-10-01T12:27:44;12.60;99.90
21944;DHT22;11136;48.778;9.126;2022-10-01T12:30:22;12.70;99.90
21944;DHT22;11136;48.778;9.126;2022-10-01T12:36:09;12.70;99.90
21944;DHT22;11136;48.778;9.126;2022-10-01T12:38:57;12.70;99.90
21944;DHT22;11136;48.778;9.126;2022-10-01T12:47:19;12.70;99.90
21944;DHT22;11136;48.778;9.126;2022-10-01T12:50:00;12.80;99.90
21944;DHT22;11136;48.778;9.126;2022-10-01T12:52:37;12.80;99.90
21944;DHT22;11136;48.778;9.126;2022-10-01T13:06:39;13.00;99.90
21944;DHT22;11136;48.778;9.126;2022-10-01T13:14:30;13.00;99.90
21944;DHT22;11136;48.778;9.126;2022-10-01T13:18:24;13.00;99.90
21944;DHT22;11136;48.778;9.126;2022-10-01T13:20:55;13.10;99.90
21944;DHT22;11136;48.778;9.126;2022-10-01T13:23:33;13.20;99.90
21944;DHT22;11136;48.778;9.126;2022-10-01T13:29:46;13.30;99.90
21944;DHT22;11136;48.778;9.126;2022-10-01T13:32:33;13.50;99.90
21944;DHT22;11136;48.778;9.126;2022-10-01T13:35:01;13.60;99.90
21944;DHT22;11136;48.778;9.126;2022-10-01T13:37:44;13.70;99.90
21944;DHT22;11136;48.778;9.126;2022-10-01T13:40:31;13.80;99.90
21944;DHT22;11136;48.778;9.126;2022-10-01T13:45:31;14.00;99.90
21944;DHT22;11136;48.778;9.126;2022-10-01T13:48:25;14.10;99.90
21944;DHT22;11136;48.778;9.126;2022-10-01T13:53:24;14.20;99.90
21944;DHT22;11136;48.778;9.126;2022-10-01T13:55:50;14.20;99.90
21944;DHT22;11136;48.778;9.126;2022-10-01T13:58:29;14.30;99.90
21944;DHT22;11136;48.778;9.126;2022-10-01T14:00:59;14.30;99.90
21944;DHT22;11136;48.778;9.126;2022-10-01T14:06:01;14.40;99.90
21944;DHT22;11136;48.778;9.126;2022-10-01T14:11:16;14.60;99.90
21944;DHT22;11136;48.778;9.126;2022-10-01T14:14:10;14.70;99.90
21944;DHT22;11136;48.778;9.126;2022-10-01T14:16:56;14.70;99.90
21944;DHT22;11136;48.778;9.126;2022-10-01T14:19:24;14.70;99.90
21944;DHT22;11136;48.778;9.126;2022-10-01T14:25:28;14.70;99.90
21944;DHT22;11136;48.778;9.126;2022-10-01T14:31:40;14.70;99.90
21944;DHT22;11136;48.778;9.126;2022-10-01T14:36:35;14.60;99.90
21944;DHT22;11136;48.778;9.126;2022-10-01T14:41:37;14.50;99.90
21944;DHT22;11136;48.778;9.126;2022-10-01T14:46:55;14.50;99.90
21944;DHT22;11136;48.778;9.126;2022-10-01T14:49:30;14.50;99.90
21944;DHT22;11136;48.778;9.126;2022-10-01T14:52:03;14.50;99.90
21944;DHT22;11136;48.778;9.126;2022-10-01T14:54:32;14.50;99.90
21944;DHT22;11136;48.778;9.126;2022-10-01T14:57:01;14.50;99.90
21944;DHT22;11136;48.778;9.126;2022-10-01T14:59:36;14.50;99.90
21944;DHT22;11136;48.778;9.126;2022-10-01T15:02:19;14.50;99.90
21944;DHT22;11136;48.778;9.126;2022-10-01T15:04:47;14.40;99.90
21944;DHT22;11136;48.778;9.126;2022-10-01T15:07:14;14.40;99.90
21944;DHT22;11136;48.778;9.126;2022-10-01T15:09:42;14.50;99.90
21944;DHT22;11136;48.778;9.126;2022-10-01T15:12:08;14.40;99.90
21944;DHT22;11136;48.778;9.126;2022-10-01T15:14:35;14.50;99.90
21944;DHT22;11136;48.778;9.126;2022-10-01T15:17:09;14.50;99.90
21944;DHT22;11136;48.778;9.126;2022-10-01T15:19:41;14.40;99.90
21944;DHT22;11136;48.778;9.126;2022-10-01T15:22:07;14.40;99.90
21944;DHT22;11136;48.778;9.126;2022-10-01T15:27:07;14.60;99.90
21944;DHT22;11136;48.778;9.126;2022-10-01T15:29:33;14.40;99.90
21944;DHT22;11136;48.778;9.126;2022-10-01T15:32:01;14.50;99.90
21944;DHT22;11136;48.778;9.126;2022-10-01T15:34:28;14.40;99.90
21944;DHT22;11136;48.778;9.126;2022-10-01T15:36:55;14.40;99.90
21944;DHT22;11136;48.778;9.126;2022-10-01T15:41:54;14.40;99.90
21944;DHT22;11136;48.778;9.126;2022-10-01T15:50:16;14.40;99.90
21944;DHT22;11136;48.778;9.126;2022-10-01T15:56:05;14.30;99.90
21944;DHT22;11136;48.778;9.126;2022-10-01T15:58:16;14.30;99.90
21944;DHT22;11136;48.778;9.126;2022-10-01T16:03:32;14.30;99.90
21944;DHT22;11136;48.778;9.126;2022-10-01T16:06:00;14.20;99.90
21944;DHT22;11136;48.778;9.126;2022-10-01T16:08:33;14.20;99.90
21944;DHT22;11136;48.778;9.126;2022-10-01T16:11:18;14.20;99.90
21944;DHT22;11136;48.778;9.126;2022-10-01T16:13:48;14.30;99.90
21944;DHT22;11136;48.778;9.126;2022-10-01T16:16:26;14.20;99.90
21944;DHT22;11136;48.778;9.126;2022-10-01T16:19:23;14.20;99.90
21944;DHT22;11136;48.778;9.126;2022-10-01T16:25:05;14.10;99.90
21944;DHT22;11136;48.778;9.126;2022-10-01T16:27:48;14.10;99.90
21944;DHT22;11136;48.778;9.126;2022-10-01T16:30:21;14.20;99.90
21944;DHT22;11136;48.778;9.126;2022-10-01T16:32:47;14.10;99.90
21944;DHT22;11136;48.778;9.126;2022-10-01T16:35:25;14.10;99.90
21944;DHT22;11136;48.778;9.126;2022-10-01T16:37:53;13.90;99.90
21944;DHT22;11136;48.778;9.126;2022-10-01T16:40:24;14.10;99.90
21944;DHT22;11136;48.778;9.126;2022-10-01T16:42:51;14.10;99.90
21944;DHT22;11136;48.778;9.126;2022-10-01T16:45:22;14.00;99.90
21944;DHT22;11136;48.778;9.126;2022-10-01T16:47:52;14.00;99.90
21944;DHT22;11136;48.778;9.126;2022-10-01T16:50:21;14.00;99.90
21944;DHT22;11136;48.778;9.126;2022-10-01T16:52:50;14.00;99.90
21944;DHT22;11136;48.778;9.126;2022-10-01T16:55:22;14.00;99.90
21944;DHT22;11136;48.778;9.126;2022-10-01T16:57:49;14.00;99.90
21944;DHT22;11136;48.778;9.126;2022-10-01T17:00:16;14.00;99.90
21944;DHT22;11136;48.778;9.126;2022-10-01T17:02:42;14.00;99.90
21944;DHT22;11136;48.778;9.126;2022-10-01T17:05:20;14.00;99.90
21944;DHT22;11136;48.778;9.126;2022-10-01T17:07:50;14.10;99.90
21944;DHT22;11136;48.778;9.126;2022-10-01T17:10:17;14.00;99.90
21944;DHT22;11136;48.778;9.126;2022-10-01T17:12:43;14.00;99.90
21944;DHT22;11136;48.778;9.126;2022-10-01T17:15:23;13.90;99.90
21944;DHT22;11136;48.778;9.126;2022-10-01T17:17:51;14.00;99.90
21944;DHT22;11136;48.778;9.126;2022-10-01T17:20:17;14.00;99.90
21944;DHT22;11136;48.778;9.126;2022-10-01T17:22:43;14.00;99.90
21944;DHT22;11136;48.778;9.126;2022-10-01T17:25:17;13.90;99.90
21944;DHT22;11136;48.778;9.126;2022-10-01T17:27:43;13.90;99.90
21944;DHT22;11136;48.778;9.126;2022-10-01T17:30:10;13.90;99.90
21944;DHT22;11136;48.778;9.126;2022-10-01T17:32:35;13.90;99.90
21944;DHT22;11136;48.778;9.126;2022-10-01T17:35:05;13.90;99.90
21944;DHT22;11136;48.778;9.126;2022-10-01T17:37:31;13.90;99.90
21944;DHT22;11136;48.778;9.126;2022-10-01T17:39:57;14.00;99.90
21944;DHT22;11136;48.778;9.126;2022-10-01T17:42:23;13.90;99.90
21944;DHT22;11136;48.778;9.126;2022-10-01T17:44:49;13.90;99.90
21944;DHT22;11136;48.778;9.126;2022-10-01T17:47:14;14.00;99.90
21944;DHT22;11136;48.778;9.126;2022-10-01T17:49:40;13.90;99.90
21944;DHT22;11136;48.778;9.126;2022-10-01T17:52:07;13.90;99.90
21944;DHT22;11136;48.778;9.126;2022-10-01T17:54:35;13.90;99.90
21944;DHT22;11136;48.778;9.126;2022-10-01T17:57:01;13.90;99.90
21944;DHT22;11136;48.778;9.126;2022-10-01T17:59:26;13.90;99.90